Time;durP1;ratioP1;P1;durP2;ratioP2;P2;SDS_P1;SDS_P2;PMS_P1;PMS_P2;Temp;Humidity;BMP_temperature;BMP_pressure;BME280_temperature;BME280_humidity;BME280_pressure;Samples;Min_cycle;Max_cycle;Signal;HPM_P1;HPM_P2
2023/02/12 00:01:23;;;;;;;34.38;19.92;;;9.60;99.90;;;;;;4119018;28;20223;-93
2023/02/12 00:03:26;;;;;;;33.55;19.85;;;9.70;99.90;;;;;;4120577;28;20265;-92
2023/02/12 00:05:28;;;;;;;34.65;20.02;;;9.90;99.90;;;;;;4118219;28;20174;-92
2023/02/12 00:07:30;;;;;;;32.13;20.08;;;9.80;99.90;;;;;;4104600;28;20171;-90
2023/02/12 00:09:30;;;;;;;33.88;19.15;;;9.50;99.90;;;;;;4102146;28;20262;-91
2023/02/12 00:11:31;;;;;;;32.35;19.30;;;9.60;99.90;;;;;;4104604;29;20246;-91
2023/02/12 00:13:32;;;;;;;33.42;20.02;;;9.60;99.90;;;;;;4106164;28;20266;-92
2023/02/12 00:15:41;;;;;;;31.30;19.55;;;9.50;99.90;;;;;;4103091;28;20171;-92
2023/02/12 00:17:48;;;;;;;27.77;18.00;;;9.60;99.90;;;;;;4118826;28;20210;-92
2023/02/12 00:19:55;;;;;;;30.55;19.95;;;9.70;99.90;;;;;;4121064;28;20209;-91
2023/02/12 00:22:05;;;;;;;32.15;19.52;;;9.70;99.90;;;;;;4118427;28;20170;-90
2023/02/12 00:24:09;;;;;;;33.20;18.30;;;9.80;99.90;;;;;;4119013;28;20198;-92
2023/02/12 00:26:12;;;;;;;28.75;18.42;;;9.70;99.90;;;;;;4100482;29;20179;-91
2023/02/12 00:28:42;;;;;;;31.92;18.20;;;9.30;99.90;;;;;;4134290;28;20188;-90
2023/02/12 00:30:43;;;;;;;30.92;19.92;;;9.00;99.90;;;;;;4122077;28;20265;-91
2023/02/12 00:32:46;;;;;;;28.50;18.58;;;9.10;99.90;;;;;;4118078;28;20186;-92
2023/02/12 00:34:47;;;;;;;29.90;18.83;;;9.20;99.90;;;;;;4118150;28;20218;-92
2023/02/12 00:36:49;;;;;;;31.02;18.35;;;9.30;99.90;;;;;;4118679;28;20193;-93
2023/02/12 00:38:55;;;;;;;34.10;18.42;;;9.30;99.90;;;;;;4101500;28;20719;-91
2023/02/12 00:41:02;;;;;;;30.20;18.88;;;9.30;99.90;;;;;;4101481;28;20174;-92
2023/02/12 00:43:05;;;;;;;29.45;18.45;;;9.20;99.90;;;;;;4119606;28;20182;-92
2023/02/12 00:45:12;;;;;;;28.15;18.83;;;9.50;99.90;;;;;;4116946;28;20197;-91
2023/02/12 00:47:27;;;;;;;27.30;18.83;;;9.70;99.90;;;;;;4101219;29;20186;-92
2023/02/12 00:49:35;;;;;;;27.63;18.33;;;10.20;99.90;;;;;;4120435;28;20194;-91
2023/02/12 00:51:42;;;;;;;27.13;18.95;;;10.30;99.90;;;;;;4120216;28;20177;-92
2023/02/12 00:53:44;;;;;;;26.88;17.55;;;10.40;99.90;;;;;;4119637;28;20177;-93
2023/02/12 00:55:48;;;;;;;29.20;18.75;;;10.50;99.90;;;;;;4102524;28;20234;-93
2023/02/12 00:57:51;;;;;;;28.45;17.45;;;9.60;99.90;;;;;;4117756;28;20217;-94
2023/02/12 00:59:54;;;;;;;25.88;17.70;;;9.30;99.90;;;;;;4104254;28;20576;-93
2023/02/12 01:01:57;;;;;;;30.02;18.60;;;9.20;99.90;;;;;;4136796;28;20264;-95
2023/02/12 01:04:20;;;;;;;26.98;17.58;;;9.40;99.90;;;;;;4132969;28;20181;-93
2023/02/12 01:06:27;;;;;;;28.52;17.77;;;9.70;99.90;;;;;;4115764;28;20169;-93
2023/02/12 01:08:33;;;;;;;27.08;17.05;;;9.70;99.90;;;;;;4119850;28;20204;-93
2023/02/12 01:10:38;;;;;;;24.65;17.20;;;10.40;99.90;;;;;;4102530;28;20667;-93
2023/02/12 01:12:38;;;;;;;24.77;16.58;;;10.50;99.90;;;;;;4101551;29;20182;-93
2023/02/12 01:14:55;;;;;;;25.48;16.30;;;10.10;99.90;;;;;;4121189;28;20206;-93
2023/02/12 01:16:56;;;;;;;25.25;16.63;;;9.70;99.90;;;;;;4120367;28;20217;-92
2023/02/12 01:19:05;;;;;;;26.08;16.60;;;9.60;99.90;;;;;;4130252;28;20198;-92
2023/02/12 01:21:18;;;;;;;25.23;16.35;;;9.60;99.90;;;;;;4109014;29;20171;-93
2023/02/12 01:23:21;;;;;;;24.02;16.95;;;9.70;99.90;;;;;;4100217;28;20175;-94
2023/02/12 01:25:34;;;;;;;20.83;15.60;;;10.20;99.90;;;;;;4117255;28;20640;-93
2023/02/12 01:27:49;;;;;;;20.83;14.20;;;10.70;99.90;;;;;;4101763;29;20179;-94
2023/02/12 01:29:53;;;;;;;20.97;13.43;;;10.40;99.90;;;;;;4099518;28;20199;-92
2023/02/12 01:31:57;;;;;;;20.27;12.83;;;10.70;99.90;;;;;;4119335;28;20190;-92
2023/02/12 01:34:07;;;;;;;18.00;12.87;;;10.80;99.90;;;;;;4122042;28;20185;-92
2023/02/12 01:36:09;;;;;;;18.90;12.53;;;10.70;99.90;;;;;;4100761;28;20182;-93
2023/02/12 01:38:14;;;;;;;19.97;12.83;;;10.30;99.90;;;;;;4115773;28;20218;-93
2023/02/12 01:40:17;;;;;;;18.42;13.48;;;10.20;99.90;;;;;;4117550;28;20317;-93
2023/02/12 01:42:19;;;;;;;16.67;12.07;;;9.50;99.90;;;;;;4099844;28;20181;-93
2023/02/12 01:44:32;;;;;;;17.20;11.17;;;9.60;99.90;;;;;;4115960;28;20205;-92
2023/02/12 01:46:32;;;;;;;21.03;12.03;;;9.90;99.90;;;;;;4099970;29;20178;-94
2023/02/12 01:48:43;;;;;;;17.23;11.17;;;10.30;99.90;;;;;;4117003;28;20195;-93
2023/02/12 01:50:49;;;;;;;16.43;11.60;;;10.40;99.90;;;;;;4101400;29;20266;-92
2023/02/12 01:52:56;;;;;;;18.63;11.23;;;10.20;99.90;;;;;;4116789;28;20186;-93
2023/02/12 01:55:01;;;;;;;16.15;10.52;;;9.80;99.90;;;;;;4117615;28;20178;-93
2023/02/12 01:57:07;;;;;;;16.00;10.90;;;9.40;99.90;;;;;;4099752;28;20179;-94
2023/02/12 01:59:12;;;;;;;13.83;10.13;;;9.10;99.90;;;;;;4101750;28;20660;-94
2023/02/12 02:01:34;;;;;;;14.30;11.02;;;9.00;99.90;;;;;;4116492;28;20181;-93
2023/02/12 02:03:38;;;;;;;12.53;9.57;;;9.00;99.90;;;;;;4099930;29;20182;-93
2023/02/12 02:06:09;;;;;;;15.60;10.77;;;9.00;99.90;;;;;;4102868;28;20217;-94
2023/02/12 02:08:26;;;;;;;15.13;10.17;;;9.10;99.90;;;;;;4099727;28;20221;-93
2023/02/12 02:10:32;;;;;;;14.55;10.50;;;9.30;99.90;;;;;;4101265;28;20235;-92
2023/02/12 02:15:05;;;;;;;15.70;10.55;;;9.00;99.90;;;;;;4133845;28;20240;-92
2023/02/12 02:17:41;;;;;;;12.25;10.05;;;9.00;99.90;;;;;;4117974;28;20682;-94
2023/02/12 02:20:18;;;;;;;15.95;10.07;;;9.00;99.90;;;;;;4103964;28;20226;-93
2023/02/12 02:22:47;;;;;;;17.73;11.18;;;9.10;99.90;;;;;;4105500;28;20192;-93
2023/02/12 02:25:03;;;;;;;15.98;10.02;;;9.20;99.90;;;;;;4102893;28;20179;-93
2023/02/12 02:27:14;;;;;;;13.65;10.02;;;9.20;99.90;;;;;;4102621;29;20187;-94
2023/02/12 02:29:44;;;;;;;17.42;10.65;;;8.90;99.90;;;;;;4104764;28;20198;-93
2023/02/12 02:31:47;;;;;;;14.95;10.38;;;8.70;99.90;;;;;;4102365;29;20281;-93
2023/02/12 02:34:22;;;;;;;15.50;9.65;;;8.80;99.90;;;;;;4103751;28;20175;-94
2023/02/12 02:36:38;;;;;;;19.05;10.18;;;8.90;99.90;;;;;;4100236;29;20186;-94
2023/02/12 02:39:18;;;;;;;15.52;9.68;;;9.00;99.90;;;;;;4137231;28;20239;-94
2023/02/12 02:41:59;;;;;;;11.75;9.38;;;9.20;99.90;;;;;;4120682;28;20178;-94
2023/02/12 02:44:23;;;;;;;11.20;8.43;;;9.20;99.90;;;;;;4118675;28;20186;-92
2023/02/12 02:46:53;;;;;;;12.65;8.32;;;9.20;99.90;;;;;;4119959;28;20632;-94
2023/02/12 02:49:03;;;;;;;12.48;9.25;;;9.30;99.90;;;;;;4102856;29;20210;-93
2023/02/12 02:51:21;;;;;;;12.55;9.25;;;9.40;99.90;;;;;;4120248;28;20706;-93
2023/02/12 02:53:47;;;;;;;16.23;9.32;;;9.40;99.90;;;;;;4103230;29;20254;-93
2023/02/12 02:55:55;;;;;;;11.77;9.10;;;9.50;99.90;;;;;;4122600;28;20243;-93
2023/02/12 02:58:08;;;;;;;11.90;9.18;;;9.70;99.90;;;;;;4102781;29;20217;-94
2023/02/12 03:00:31;;;;;;;13.30;9.53;;;10.50;99.90;;;;;;4119034;28;20185;-92
2023/02/12 03:02:46;;;;;;;14.40;9.00;;;10.90;99.90;;;;;;4118835;28;20721;-93
2023/02/12 03:04:53;;;;;;;15.93;9.82;;;10.40;99.90;;;;;;4103075;29;20222;-94
2023/02/12 03:07:14;;;;;;;13.45;9.50;;;9.90;99.90;;;;;;4103289;29;20175;-94
2023/02/12 03:09:43;;;;;;;14.45;9.07;;;9.60;99.90;;;;;;4136614;28;20204;-93
2023/02/12 03:12:02;;;;;;;16.15;9.23;;;9.40;99.90;;;;;;4104410;28;20316;-93
2023/02/12 03:14:10;;;;;;;14.75;9.23;;;9.40;99.90;;;;;;4103084;28;20735;-93
2023/02/12 03:16:33;;;;;;;12.18;9.25;;;9.50;99.90;;;;;;4118881;28;20190;-93
2023/02/12 03:18:52;;;;;;;14.23;9.57;;;9.70;99.90;;;;;;4119051;28;20217;-93
2023/02/12 03:21:11;;;;;;;14.23;10.10;;;9.70;99.90;;;;;;4135785;28;20252;-93
2023/02/12 03:23:20;;;;;;;16.15;9.98;;;9.70;99.90;;;;;;4102848;28;20297;-95
2023/02/12 03:25:27;;;;;;;12.95;9.95;;;10.00;99.90;;;;;;4104136;28;20250;-94
2023/02/12 03:27:32;;;;;;;11.25;9.48;;;10.10;99.90;;;;;;4103974;28;20651;-92
2023/02/12 03:29:40;;;;;;;11.07;9.20;;;10.10;99.90;;;;;;4104552;28;20171;-93
2023/02/12 03:32:13;;;;;;;10.60;9.05;;;10.10;99.90;;;;;;4102761;29;20228;-94
2023/02/12 03:34:25;;;;;;;16.67;9.95;;;9.70;99.90;;;;;;4101856;29;20525;-92
2023/02/12 03:36:52;;;;;;;14.82;9.48;;;9.50;99.90;;;;;;4118260;28;20204;-92
2023/02/12 03:39:04;;;;;;;11.80;9.60;;;9.40;99.90;;;;;;4101806;28;20222;-92
2023/02/12 03:41:18;;;;;;;13.23;9.45;;;9.20;99.90;;;;;;4119274;28;20174;-93
2023/02/12 03:43:30;;;;;;;13.30;9.75;;;9.20;99.90;;;;;;4102281;29;20183;-93
2023/02/12 03:45:49;;;;;;;13.77;9.68;;;9.00;99.90;;;;;;4104638;28;20183;-92
2023/02/12 03:48:20;;;;;;;14.55;8.88;;;8.90;99.90;;;;;;4102165;28;20242;-92
2023/02/12 03:50:41;;;;;;;12.23;8.60;;;9.00;99.90;;;;;;4104755;28;20691;-94
2023/02/12 03:52:42;;;;;;;11.63;9.18;;;8.90;99.90;;;;;;4101748;29;20175;-93
2023/02/12 03:54:47;;;;;;;11.43;8.85;;;8.90;99.90;;;;;;4103420;28;20162;-93
2023/02/12 03:56:55;;;;;;;12.15;9.93;;;9.20;99.90;;;;;;4135301;28;20186;-93
2023/02/12 03:59:00;;;;;;;11.52;7.75;;;9.10;99.90;;;;;;4105983;28;20226;-94
2023/02/12 04:01:09;;;;;;;9.48;7.93;;;9.20;99.90;;;;;;4119850;28;20325;-93
2023/02/12 04:03:13;;;;;;;11.65;8.60;;;9.00;99.90;;;;;;4103359;29;20182;-94
2023/02/12 04:05:26;;;;;;;14.48;8.65;;;9.00;99.90;;;;;;4109443;28;20179;-93
2023/02/12 04:07:27;;;;;;;12.60;9.15;;;9.10;99.90;;;;;;4105801;28;20174;-93
2023/02/12 14:58:51;;;;;;;;;;;;;;;;;;;;;
2023/02/12 15:01:59;;;;;;;;;;;;;;;;;;;;;
2023/02/12 15:05:09;;;;;;;;;;;;;;;;;;;;;
2023/02/12 15:08:01;;;;;;;;;;;;;;;;;;;;;
2023/02/12 19:15:52;;;;;;;54.40;27.73;;;9.70;99.90;;;;;;4110073;28;20226;-93
2023/02/12 19:17:54;;;;;;;52.57;28.03;;;9.60;99.90;;;;;;4106113;28;20180;-91
2023/02/12 19:19:54;;;;;;;54.63;28.73;;;9.50;99.90;;;;;;4094651;28;20223;-93
2023/02/12 19:21:55;;;;;;;56.57;30.07;;;9.50;99.90;;;;;;4093305;28;20222;-94
2023/02/12 19:23:58;;;;;;;61.50;30.10;;;9.60;99.90;;;;;;4078661;29;20212;-92
2023/02/12 19:26:29;;;;;;;50.37;28.23;;;9.80;99.90;;;;;;4080150;29;20192;-94
2023/02/12 19:28:30;;;;;;;55.90;28.37;;;9.90;99.90;;;;;;4080561;29;20175;-94
2023/02/12 19:30:30;;;;;;;55.03;27.80;;;9.80;99.90;;;;;;4093454;28;20183;-93
2023/02/12 19:32:31;;;;;;;52.30;28.50;;;9.60;99.90;;;;;;4093180;28;20203;-93
2023/02/12 19:34:32;;;;;;;60.60;28.53;;;9.60;99.90;;;;;;4079913;29;20186;-93
2023/02/12 19:36:35;;;;;;;52.23;28.00;;;9.60;99.90;;;;;;4091684;28;20156;-93
2023/02/12 19:38:37;;;;;;;57.90;28.57;;;9.60;99.90;;;;;;4072960;29;20242;-94
2023/02/12 19:40:37;;;;;;;54.80;28.83;;;9.60;99.90;;;;;;4075573;29;20184;-93
2023/02/12 19:42:38;;;;;;;55.73;29.43;;;9.40;99.90;;;;;;4089856;28;20683;-93
2023/02/12 19:44:39;;;;;;;53.33;29.27;;;9.30;99.90;;;;;;4073161;29;20626;-92
2023/02/12 19:46:41;;;;;;;53.30;27.60;;;9.30;99.90;;;;;;4074057;29;20176;-92
2023/02/12 19:48:42;;;;;;;57.10;28.57;;;9.20;99.90;;;;;;4074708;29;20193;-93
2023/02/12 19:50:45;;;;;;;58.00;28.73;;;9.20;99.90;;;;;;4091500;29;20645;-93
2023/02/12 19:52:45;;;;;;;57.67;29.57;;;9.20;99.90;;;;;;4074102;29;20217;-94
2023/02/12 19:54:49;;;;;;;53.83;28.27;;;9.30;99.90;;;;;;4088063;29;20180;-92
2023/02/12 19:56:52;;;;;;;58.17;29.33;;;9.30;99.90;;;;;;4074418;29;20172;-93
2023/02/12 19:58:56;;;;;;;57.03;30.00;;;9.30;99.90;;;;;;4076221;29;20212;-93
2023/02/12 20:01:01;;;;;;;58.07;29.13;;;9.30;99.90;;;;;;4090073;29;20175;-93
2023/02/12 20:03:01;;;;;;;58.30;30.20;;;9.30;99.90;;;;;;4078631;29;20305;-93
2023/02/12 20:05:02;;;;;;;58.67;31.50;;;9.30;99.90;;;;;;4073879;29;20205;-93
2023/02/12 20:07:07;;;;;;;60.67;30.07;;;9.30;99.90;;;;;;4090662;28;20595;-94
2023/02/12 20:09:09;;;;;;;56.87;30.07;;;9.40;99.90;;;;;;4075836;29;20235;-93
2023/02/12 20:11:15;;;;;;;61.53;30.83;;;9.50;99.90;;;;;;4088296;29;20220;-93
2023/02/12 20:13:18;;;;;;;60.80;30.87;;;9.50;99.90;;;;;;4075275;29;20176;-93
2023/02/12 20:15:19;;;;;;;63.97;31.10;;;9.50;99.90;;;;;;4075326;29;20196;-93
2023/02/12 20:17:20;;;;;;;57.10;30.13;;;9.50;99.90;;;;;;4089080;29;20585;-92
2023/02/12 20:19:31;;;;;;;59.80;31.07;;;9.40;99.90;;;;;;4079029;29;20287;-92
2023/02/12 20:21:34;;;;;;;61.50;31.77;;;9.40;99.90;;;;;;4078158;29;20180;-92
2023/02/12 20:23:35;;;;;;;63.60;31.83;;;9.40;99.90;;;;;;4077399;29;20210;-93
2023/02/12 20:25:42;;;;;;;60.07;30.77;;;9.50;99.90;;;;;;4077474;29;20160;-93
2023/02/12 20:27:43;;;;;;;61.27;30.67;;;9.60;99.90;;;;;;4077122;29;20267;-93
2023/02/12 20:29:43;;;;;;;62.27;31.40;;;9.60;99.90;;;;;;4077671;29;20192;-92
2023/02/12 20:31:44;;;;;;;59.63;31.70;;;9.60;99.90;;;;;;4093622;28;20863;-93
2023/02/12 20:33:46;;;;;;;62.17;31.30;;;9.50;99.90;;;;;;4074883;29;20549;-93
2023/02/12 20:35:55;;;;;;;64.43;31.77;;;9.50;99.90;;;;;;4073652;29;20152;-93
2023/02/12 20:37:57;;;;;;;62.20;30.73;;;9.50;99.90;;;;;;4072797;29;20259;-95
2023/02/12 20:39:58;;;;;;;60.60;31.07;;;9.60;99.90;;;;;;4075000;29;20732;-93
2023/02/12 20:41:58;;;;;;;59.23;30.97;;;9.70;99.90;;;;;;4073458;29;20164;-93
2023/02/12 20:44:00;;;;;;;59.40;30.07;;;9.70;99.90;;;;;;4087414;29;20180;-94
2023/02/12 20:46:18;;;;;;;61.50;30.50;;;9.60;99.90;;;;;;4093777;28;20202;-94
2023/02/12 20:48:20;;;;;;;59.03;30.47;;;9.60;99.90;;;;;;4074208;29;20177;-94
2023/02/12 20:50:23;;;;;;;60.00;29.90;;;9.50;99.90;;;;;;4073996;29;20184;-92
2023/02/12 20:52:24;;;;;;;57.80;30.63;;;9.50;99.90;;;;;;4076538;29;20176;-94
2023/02/12 20:54:25;;;;;;;60.43;30.40;;;9.50;99.90;;;;;;4075331;29;20260;-94
2023/02/12 20:56:28;;;;;;;61.60;31.63;;;9.50;99.90;;;;;;4089707;28;20596;-93
2023/02/12 20:58:29;;;;;;;58.70;30.23;;;9.50;99.90;;;;;;4089585;29;20208;-94
2023/02/12 21:00:30;;;;;;;67.50;32.20;;;9.40;99.90;;;;;;4073516;29;20245;-93
2023/02/12 21:02:31;;;;;;;62.47;30.83;;;9.30;99.90;;;;;;4088930;29;20514;-92
2023/02/12 21:04:49;;;;;;;59.63;30.03;;;9.30;99.90;;;;;;4073347;29;20180;-94
2023/02/12 21:06:49;;;;;;;68.20;33.07;;;9.30;99.90;;;;;;4072711;29;20251;-93
2023/02/12 21:08:52;;;;;;;57.57;29.53;;;9.40;99.90;;;;;;4076053;29;20200;-93
2023/02/12 21:11:14;;;;;;;64.17;31.67;;;9.50;99.90;;;;;;4088941;29;20226;-92
2023/02/12 21:13:14;;;;;;;60.80;30.87;;;9.50;99.90;;;;;;4070976;29;20327;-93
2023/02/12 21:15:15;;;;;;;58.97;31.13;;;9.50;99.90;;;;;;4071291;29;20255;-94
2023/02/12 21:17:16;;;;;;;61.97;33.13;;;9.50;99.90;;;;;;4089052;29;20580;-93
2023/02/12 21:19:17;;;;;;;60.23;31.33;;;9.50;99.90;;;;;;4073609;29;20231;-95
2023/02/12 21:21:21;;;;;;;59.03;31.20;;;9.60;99.90;;;;;;4087933;29;20179;-95
2023/02/12 21:23:22;;;;;;;63.63;32.50;;;9.50;99.90;;;;;;4088063;29;20246;-93
2023/02/12 21:25:25;;;;;;;66.73;32.13;;;9.40;99.90;;;;;;4091383;28;20187;-94
2023/02/12 21:27:26;;;;;;;61.53;31.07;;;9.40;99.90;;;;;;4075601;29;20629;-92
2023/02/12 21:29:31;;;;;;;60.90;31.20;;;9.30;99.90;;;;;;4091375;28;20295;-93
2023/02/12 21:31:35;;;;;;;61.83;31.63;;;9.40;99.90;;;;;;4075527;29;20204;-94
2023/02/12 21:33:38;;;;;;;62.03;31.97;;;9.50;99.90;;;;;;4094298;28;20156;-94
2023/02/12 21:35:42;;;;;;;66.80;32.37;;;9.60;99.90;;;;;;4075583;29;20184;-94
2023/02/12 21:37:42;;;;;;;61.87;31.83;;;9.70;99.90;;;;;;4075118;29;20207;-94
2023/02/12 21:39:46;;;;;;;63.03;30.60;;;9.70;99.90;;;;;;4072349;29;20235;-92
2023/02/12 21:41:50;;;;;;;62.17;31.83;;;9.70;99.90;;;;;;4089185;28;20235;-95
2023/02/12 21:43:55;;;;;;;63.10;32.30;;;9.70;99.90;;;;;;4071466;29;20216;-93
2023/02/12 21:45:56;;;;;;;63.53;30.83;;;9.80;99.90;;;;;;4075798;29;20641;-93
2023/02/12 21:47:56;;;;;;;63.43;32.33;;;9.90;99.90;;;;;;4075126;29;20167;-92
2023/02/12 21:49:59;;;;;;;65.33;33.30;;;9.90;99.90;;;;;;4074118;29;20204;-94
2023/02/12 21:52:02;;;;;;;62.30;32.63;;;10.00;99.90;;;;;;4075824;29;20192;-93
2023/02/12 21:54:06;;;;;;;66.43;32.27;;;10.00;99.90;;;;;;4058940;29;20313;-95
2023/02/12 21:56:09;;;;;;;67.40;33.93;;;10.10;99.90;;;;;;4088349;29;20600;-93
2023/02/12 21:58:09;;;;;;;68.10;32.70;;;10.10;99.90;;;;;;4075039;29;20185;-94
2023/02/12 22:00:11;;;;;;;64.43;32.63;;;10.10;99.90;;;;;;4075858;29;20240;-93
2023/02/12 22:02:14;;;;;;;67.17;31.17;;;10.20;99.90;;;;;;4093375;28;20164;-94
2023/02/12 22:04:20;;;;;;;67.20;33.83;;;10.30;99.90;;;;;;4076193;29;20199;-93
2023/02/12 22:06:25;;;;;;;67.57;32.07;;;10.40;99.90;;;;;;4091923;28;20180;-93
2023/02/12 22:08:25;;;;;;;61.47;32.50;;;10.50;99.90;;;;;;4077507;29;20272;-93
2023/02/12 22:10:28;;;;;;;64.47;32.40;;;10.50;99.90;;;;;;4090922;28;20266;-93
2023/02/12 22:12:31;;;;;;;70.33;33.77;;;10.40;99.90;;;;;;4073200;29;20279;-92
2023/02/12 22:14:34;;;;;;;70.50;34.23;;;10.30;99.90;;;;;;4075431;29;20211;-95
2023/02/12 22:16:35;;;;;;;71.10;33.60;;;10.20;99.90;;;;;;4089264;28;20223;-92
2023/02/12 22:18:36;;;;;;;65.10;33.10;;;10.10;99.90;;;;;;4074979;29;20227;-94
2023/02/12 22:20:37;;;;;;;65.40;33.03;;;10.10;99.90;;;;;;4075230;29;20177;-94
2023/02/12 22:22:38;;;;;;;63.80;32.27;;;10.10;99.90;;;;;;4076427;29;20692;-92
2023/02/12 22:24:40;;;;;;;63.43;32.73;;;10.10;99.90;;;;;;4076724;29;20231;-93
2023/02/12 22:26:45;;;;;;;69.27;32.00;;;10.00;99.90;;;;;;4075682;29;20267;-94
2023/02/12 22:28:49;;;;;;;66.73;33.27;;;10.00;99.90;;;;;;4093981;28;20192;-93
2023/02/12 22:30:49;;;;;;;70.60;33.03;;;10.00;99.90;;;;;;4077891;29;20581;-93
2023/02/12 22:32:50;;;;;;;67.37;32.57;;;10.00;99.90;;;;;;4073482;29;20184;-93
2023/02/12 22:34:51;;;;;;;70.53;33.93;;;10.00;99.90;;;;;;4073642;29;20211;-93
2023/02/12 22:37:00;;;;;;;68.63;33.70;;;10.00;99.90;;;;;;4097150;29;20663;-93
2023/02/12 22:39:04;;;;;;;70.80;32.90;;;10.00;99.90;;;;;;4079699;29;20242;-93
2023/02/12 22:41:07;;;;;;;67.20;33.83;;;10.10;99.90;;;;;;4096254;28;20187;-93
2023/02/12 22:43:07;;;;;;;71.70;33.57;;;10.20;99.90;;;;;;4077453;29;20214;-93
2023/02/12 22:45:08;;;;;;;66.67;33.13;;;10.20;99.90;;;;;;4076301;29;20177;-95
2023/02/12 22:47:12;;;;;;;70.63;34.00;;;10.10;99.90;;;;;;4078109;29;20180;-93
2023/02/12 22:49:14;;;;;;;66.10;33.27;;;10.20;99.90;;;;;;4076682;29;20217;-94
2023/02/12 22:51:38;;;;;;;70.03;34.00;;;10.20;99.90;;;;;;4078307;29;20183;-93
2023/02/12 22:53:59;;;;;;;67.50;34.13;;;10.20;99.90;;;;;;4076639;29;20195;-93
2023/02/12 22:56:04;;;;;;;67.90;33.40;;;10.10;99.90;;;;;;4079599;29;20187;-94
2023/02/12 22:58:05;;;;;;;70.77;33.07;;;10.00;99.90;;;;;;4076714;29;20180;-94
2023/02/12 23:00:07;;;;;;;69.80;33.73;;;10.20;99.90;;;;;;4073659;29;20256;-94
2023/02/12 23:02:11;;;;;;;66.53;33.17;;;10.10;99.90;;;;;;4074867;29;20285;-93
2023/02/12 23:04:33;;;;;;;78.60;34.33;;;10.00;99.90;;;;;;4092259;28;20203;-93
2023/02/12 23:06:37;;;;;;;64.97;33.10;;;10.00;99.90;;;;;;4078304;29;20236;-93
2023/02/12 23:08:38;;;;;;;73.23;33.63;;;9.90;99.90;;;;;;4079122;29;20298;-94
2023/02/12 23:10:39;;;;;;;76.67;34.70;;;9.70;99.90;;;;;;4076984;29;20188;-93
2023/02/12 23:12:39;;;;;;;74.07;34.60;;;9.70;99.90;;;;;;4094702;28;20194;-93
2023/02/12 23:14:40;;;;;;;73.37;35.30;;;9.50;99.90;;;;;;4078465;29;20198;-93
2023/02/12 23:16:41;;;;;;;71.87;34.60;;;9.50;99.90;;;;;;4090534;29;20179;-94
2023/02/12 23:18:42;;;;;;;72.43;33.50;;;9.40;99.90;;;;;;4076552;29;20220;-93
2023/02/12 23:20:43;;;;;;;72.57;34.73;;;9.30;99.90;;;;;;4092350;28;20203;-94
2023/02/12 23:22:44;;;;;;;78.17;36.53;;;9.20;99.90;;;;;;4077183;29;20163;-94
2023/02/12 23:24:45;;;;;;;75.53;35.00;;;9.20;99.90;;;;;;4078101;29;20181;-93
2023/02/12 23:26:46;;;;;;;79.00;35.70;;;9.20;99.90;;;;;;4081058;29;20230;-93
2023/02/12 23:28:46;;;;;;;77.17;34.60;;;9.10;99.90;;;;;;4095130;28;20248;-94
2023/02/12 23:30:52;;;;;;;84.17;36.97;;;9.00;99.90;;;;;;4078879;29;20218;-92
2023/02/12 23:32:52;;;;;;;79.03;35.57;;;9.00;99.90;;;;;;4078652;29;20191;-94
2023/02/12 23:34:57;;;;;;;77.60;35.73;;;8.90;99.90;;;;;;4092603;29;20214;-94
2023/02/12 23:37:01;;;;;;;81.57;37.30;;;8.70;99.90;;;;;;4078124;29;20204;-93
2023/02/12 23:39:04;;;;;;;86.73;37.17;;;8.60;99.90;;;;;;4075019;29;20226;-93
2023/02/12 23:41:10;;;;;;;84.63;36.50;;;8.70;99.90;;;;;;4076626;29;20200;-93
2023/02/12 23:43:14;;;;;;;80.90;36.37;;;8.90;99.90;;;;;;4093624;29;20226;-93
2023/02/12 23:45:15;;;;;;;83.37;37.20;;;9.10;99.90;;;;;;4082679;29;20167;-94
2023/02/12 23:47:20;;;;;;;78.63;35.63;;;9.20;99.90;;;;;;4104620;28;20183;-94
2023/02/12 23:49:21;;;;;;;77.87;36.53;;;9.20;99.90;;;;;;4096050;28;20187;-93
2023/02/12 23:51:21;;;;;;;84.17;36.57;;;9.10;99.90;;;;;;4075538;29;20187;-94
2023/02/12 23:53:30;;;;;;;82.73;38.27;;;9.00;99.90;;;;;;4079441;29;20180;-95
2023/02/12 23:55:34;;;;;;;85.00;36.73;;;9.00;99.90;;;;;;4088461;29;20195;-94
2023/02/12 23:57:34;;;;;;;88.20;37.40;;;9.00;99.90;;;;;;4074249;29;20526;-94
2023/02/12 23:59:36;;;;;;;85.57;38.20;;;8.90;99.90;;;;;;4093074;28;20207;-95
